sensor_id;sensor_type;location;lat;lon;timestamp;P1;durP1;ratioP1;P2;durP2;ratioP2
41755;SDS011;27435;48.480;9.258;2022-09-09T00:00:19;3.75;;;1.35;;
41755;SDS011;27435;48.480;9.258;2022-09-09T00:03:14;3.38;;;0.65;;
41755;SDS011;27435;48.480;9.258;2022-09-09T00:06:20;5.75;;;0.70;;
41755;SDS011;27435;48.480;9.258;2022-09-09T00:09:07;3.63;;;0.85;;
41755;SDS011;27435;48.480;9.258;2022-09-09T00:14:13;4.57;;;0.60;;
41755;SDS011;27435;48.480;9.258;2022-09-09T00:16:47;2.45;;;0.73;;
41755;SDS011;27435;48.480;9.258;2022-09-09T00:27:01;5.85;;;0.80;;
41755;SDS011;27435;48.480;9.258;2022-09-09T00:32:19;3.45;;;0.52;;
41755;SDS011;27435;48.480;9.258;2022-09-09T00:34:49;7.00;;;0.60;;
41755;SDS011;27435;48.480;9.258;2022-09-09T00:37:19;3.22;;;0.73;;
41755;SDS011;27435;48.480;9.258;2022-09-09T00:39:47;5.82;;;0.93;;
41755;SDS011;27435;48.480;9.258;2022-09-09T00:44:48;6.95;;;0.60;;
41755;SDS011;27435;48.480;9.258;2022-09-09T00:55:52;6.95;;;0.70;;
41755;SDS011;27435;48.480;9.258;2022-09-09T00:58:27;2.60;;;0.50;;
41755;SDS011;27435;48.480;9.258;2022-09-09T01:00:57;4.95;;;0.73;;
41755;SDS011;27435;48.480;9.258;2022-09-09T01:03:33;4.00;;;0.90;;
41755;SDS011;27435;48.480;9.258;2022-09-09T01:06:14;5.05;;;0.70;;
41755;SDS011;27435;48.480;9.258;2022-09-09T01:11:27;1.80;;;0.57;;
41755;SDS011;27435;48.480;9.258;2022-09-09T01:14:22;2.08;;;0.75;;
41755;SDS011;27435;48.480;9.258;2022-09-09T01:19:41;2.03;;;0.60;;
41755;SDS011;27435;48.480;9.258;2022-09-09T01:22:22;2.60;;;0.60;;
41755;SDS011;27435;48.480;9.258;2022-09-09T01:27:57;4.28;;;0.60;;
41755;SDS011;27435;48.480;9.258;2022-09-09T01:30:25;4.05;;;1.02;;
41755;SDS011;27435;48.480;9.258;2022-09-09T01:32:55;2.55;;;0.50;;
41755;SDS011;27435;48.480;9.258;2022-09-09T01:38:02;5.50;;;1.15;;
41755;SDS011;27435;48.480;9.258;2022-09-09T01:40:28;4.90;;;0.80;;
41755;SDS011;27435;48.480;9.258;2022-09-09T01:42:53;2.72;;;0.73;;
41755;SDS011;27435;48.480;9.258;2022-09-09T01:45:20;2.28;;;0.50;;
41755;SDS011;27435;48.480;9.258;2022-09-09T01:47:47;3.15;;;0.70;;
41755;SDS011;27435;48.480;9.258;2022-09-09T01:50:14;1.88;;;0.90;;
41755;SDS011;27435;48.480;9.258;2022-09-09T01:52:41;2.25;;;0.60;;
41755;SDS011;27435;48.480;9.258;2022-09-09T01:55:08;5.93;;;1.20;;
41755;SDS011;27435;48.480;9.258;2022-09-09T02:00:41;2.63;;;0.60;;
41755;SDS011;27435;48.480;9.258;2022-09-09T02:03:23;2.70;;;0.88;;
41755;SDS011;27435;48.480;9.258;2022-09-09T02:06:00;2.28;;;0.80;;
41755;SDS011;27435;48.480;9.258;2022-09-09T02:09:01;3.72;;;0.65;;
41755;SDS011;27435;48.480;9.258;2022-09-09T02:11:30;2.38;;;0.70;;
41755;SDS011;27435;48.480;9.258;2022-09-09T02:13:58;3.60;;;0.75;;
41755;SDS011;27435;48.480;9.258;2022-09-09T02:16:44;5.40;;;0.70;;
41755;SDS011;27435;48.480;9.258;2022-09-09T02:19:20;2.85;;;0.70;;
41755;SDS011;27435;48.480;9.258;2022-09-09T02:21:56;3.50;;;0.80;;
41755;SDS011;27435;48.480;9.258;2022-09-09T02:24:24;6.60;;;0.90;;
41755;SDS011;27435;48.480;9.258;2022-09-09T02:26:52;2.45;;;0.63;;
41755;SDS011;27435;48.480;9.258;2022-09-09T02:29:28;3.35;;;1.00;;
41755;SDS011;27435;48.480;9.258;2022-09-09T02:32:07;4.53;;;1.35;;
41755;SDS011;27435;48.480;9.258;2022-09-09T02:34:36;5.43;;;1.10;;
41755;SDS011;27435;48.480;9.258;2022-09-09T02:37:09;2.20;;;0.98;;
41755;SDS011;27435;48.480;9.258;2022-09-09T02:39:37;4.60;;;1.58;;
41755;SDS011;27435;48.480;9.258;2022-09-09T02:42:03;6.03;;;1.65;;
41755;SDS011;27435;48.480;9.258;2022-09-09T02:44:29;5.03;;;1.30;;
41755;SDS011;27435;48.480;9.258;2022-09-09T02:49:48;7.30;;;1.10;;
41755;SDS011;27435;48.480;9.258;2022-09-09T02:58:09;5.60;;;1.33;;
41755;SDS011;27435;48.480;9.258;2022-09-09T03:00:39;8.00;;;0.90;;
41755;SDS011;27435;48.480;9.258;2022-09-09T03:03:06;3.08;;;1.63;;
41755;SDS011;27435;48.480;9.258;2022-09-09T03:05:33;3.45;;;0.80;;
41755;SDS011;27435;48.480;9.258;2022-09-09T03:07:59;1.90;;;0.80;;
41755;SDS011;27435;48.480;9.258;2022-09-09T03:10:25;10.95;;;1.42;;
41755;SDS011;27435;48.480;9.258;2022-09-09T03:12:50;5.25;;;1.58;;
41755;SDS011;27435;48.480;9.258;2022-09-09T03:15:16;3.08;;;0.98;;
41755;SDS011;27435;48.480;9.258;2022-09-09T03:17:42;5.65;;;1.27;;
41755;SDS011;27435;48.480;9.258;2022-09-09T03:20:08;3.42;;;1.20;;
41755;SDS011;27435;48.480;9.258;2022-09-09T03:22:34;4.63;;;1.50;;
41755;SDS011;27435;48.480;9.258;2022-09-09T03:25:00;4.30;;;0.90;;
41755;SDS011;27435;48.480;9.258;2022-09-09T03:27:27;5.60;;;1.30;;
41755;SDS011;27435;48.480;9.258;2022-09-09T03:29:53;5.47;;;0.85;;
41755;SDS011;27435;48.480;9.258;2022-09-09T03:32:19;9.25;;;1.10;;
41755;SDS011;27435;48.480;9.258;2022-09-09T03:34:47;6.00;;;1.23;;
41755;SDS011;27435;48.480;9.258;2022-09-09T03:37:15;4.30;;;1.05;;
41755;SDS011;27435;48.480;9.258;2022-09-09T03:39:42;4.90;;;1.00;;
41755;SDS011;27435;48.480;9.258;2022-09-09T03:42:08;4.53;;;1.38;;
41755;SDS011;27435;48.480;9.258;2022-09-09T03:44:33;4.82;;;1.17;;
41755;SDS011;27435;48.480;9.258;2022-09-09T03:46:59;2.50;;;0.85;;
41755;SDS011;27435;48.480;9.258;2022-09-09T03:49:27;5.93;;;1.13;;
41755;SDS011;27435;48.480;9.258;2022-09-09T03:51:56;8.65;;;0.80;;
41755;SDS011;27435;48.480;9.258;2022-09-09T03:54:23;4.50;;;1.00;;
41755;SDS011;27435;48.480;9.258;2022-09-09T03:56:53;1.80;;;0.70;;
41755;SDS011;27435;48.480;9.258;2022-09-09T03:59:19;3.42;;;0.90;;
41755;SDS011;27435;48.480;9.258;2022-09-09T04:01:46;5.80;;;1.05;;
41755;SDS011;27435;48.480;9.258;2022-09-09T04:04:12;6.28;;;1.10;;
41755;SDS011;27435;48.480;9.258;2022-09-09T04:06:38;5.82;;;1.20;;
41755;SDS011;27435;48.480;9.258;2022-09-09T04:09:03;2.53;;;0.85;;
41755;SDS011;27435;48.480;9.258;2022-09-09T04:11:29;2.92;;;0.90;;
41755;SDS011;27435;48.480;9.258;2022-09-09T04:13:55;7.28;;;1.20;;
41755;SDS011;27435;48.480;9.258;2022-09-09T04:16:21;4.40;;;1.40;;
41755;SDS011;27435;48.480;9.258;2022-09-09T04:18:46;4.15;;;1.20;;
41755;SDS011;27435;48.480;9.258;2022-09-09T04:21:13;10.32;;;1.38;;
41755;SDS011;27435;48.480;9.258;2022-09-09T04:23:39;8.05;;;1.45;;
41755;SDS011;27435;48.480;9.258;2022-09-09T04:26:04;6.05;;;1.30;;
41755;SDS011;27435;48.480;9.258;2022-09-09T04:28:31;5.03;;;1.20;;
41755;SDS011;27435;48.480;9.258;2022-09-09T04:31:16;8.20;;;1.47;;
41755;SDS011;27435;48.480;9.258;2022-09-09T04:33:43;3.63;;;1.27;;
41755;SDS011;27435;48.480;9.258;2022-09-09T04:36:09;10.25;;;2.05;;
41755;SDS011;27435;48.480;9.258;2022-09-09T04:38:35;2.75;;;1.48;;
41755;SDS011;27435;48.480;9.258;2022-09-09T04:41:01;5.82;;;1.30;;
41755;SDS011;27435;48.480;9.258;2022-09-09T04:43:27;5.90;;;2.00;;
41755;SDS011;27435;48.480;9.258;2022-09-09T04:45:52;4.78;;;1.70;;
41755;SDS011;27435;48.480;9.258;2022-09-09T04:48:19;8.90;;;1.10;;
41755;SDS011;27435;48.480;9.258;2022-09-09T04:50:59;8.60;;;1.60;;
41755;SDS011;27435;48.480;9.258;2022-09-09T04:53:26;5.60;;;1.10;;
41755;SDS011;27435;48.480;9.258;2022-09-09T04:55:52;3.07;;;1.40;;
41755;SDS011;27435;48.480;9.258;2022-09-09T04:58:26;4.57;;;1.40;;
41755;SDS011;27435;48.480;9.258;2022-09-09T05:00:51;7.07;;;1.58;;
41755;SDS011;27435;48.480;9.258;2022-09-09T05:03:17;7.13;;;1.87;;
41755;SDS011;27435;48.480;9.258;2022-09-09T05:05:43;5.63;;;1.40;;
41755;SDS011;27435;48.480;9.258;2022-09-09T05:08:09;2.93;;;1.00;;
41755;SDS011;27435;48.480;9.258;2022-09-09T05:10:36;5.63;;;1.33;;
41755;SDS011;27435;48.480;9.258;2022-09-09T05:13:03;4.33;;;1.63;;
41755;SDS011;27435;48.480;9.258;2022-09-09T05:15:30;10.13;;;1.60;;
41755;SDS011;27435;48.480;9.258;2022-09-09T05:17:57;2.53;;;1.03;;
41755;SDS011;27435;48.480;9.258;2022-09-09T05:20:26;5.07;;;1.60;;
41755;SDS011;27435;48.480;9.258;2022-09-09T05:22:55;4.20;;;1.73;;
41755;SDS011;27435;48.480;9.258;2022-09-09T05:25:21;2.67;;;1.00;;
41755;SDS011;27435;48.480;9.258;2022-09-09T05:27:49;4.28;;;1.38;;
41755;SDS011;27435;48.480;9.258;2022-09-09T05:30:15;5.03;;;1.27;;
41755;SDS011;27435;48.480;9.258;2022-09-09T05:32:41;3.63;;;1.05;;
41755;SDS011;27435;48.480;9.258;2022-09-09T05:35:06;5.63;;;1.13;;
41755;SDS011;27435;48.480;9.258;2022-09-09T05:37:32;3.42;;;0.85;;
41755;SDS011;27435;48.480;9.258;2022-09-09T05:39:57;3.58;;;0.82;;
41755;SDS011;27435;48.480;9.258;2022-09-09T05:42:23;2.85;;;1.13;;
41755;SDS011;27435;48.480;9.258;2022-09-09T05:44:49;2.80;;;1.10;;
41755;SDS011;27435;48.480;9.258;2022-09-09T05:47:16;3.75;;;1.20;;
41755;SDS011;27435;48.480;9.258;2022-09-09T05:49:42;5.15;;;1.10;;
41755;SDS011;27435;48.480;9.258;2022-09-09T05:52:07;7.80;;;1.55;;
41755;SDS011;27435;48.480;9.258;2022-09-09T05:54:34;6.40;;;1.13;;
41755;SDS011;27435;48.480;9.258;2022-09-09T05:57:00;1.88;;;0.85;;
41755;SDS011;27435;48.480;9.258;2022-09-09T05:59:26;3.03;;;0.90;;
41755;SDS011;27435;48.480;9.258;2022-09-09T06:01:52;4.25;;;0.90;;
41755;SDS011;27435;48.480;9.258;2022-09-09T06:04:18;4.75;;;1.10;;
41755;SDS011;27435;48.480;9.258;2022-09-09T06:06:45;6.88;;;1.40;;
41755;SDS011;27435;48.480;9.258;2022-09-09T06:09:11;3.15;;;0.77;;
41755;SDS011;27435;48.480;9.258;2022-09-09T06:11:38;6.32;;;0.93;;
41755;SDS011;27435;48.480;9.258;2022-09-09T06:14:04;2.60;;;0.75;;
41755;SDS011;27435;48.480;9.258;2022-09-09T06:16:31;3.10;;;0.90;;
41755;SDS011;27435;48.480;9.258;2022-09-09T06:18:57;3.30;;;0.80;;
41755;SDS011;27435;48.480;9.258;2022-09-09T06:21:24;2.88;;;0.82;;
41755;SDS011;27435;48.480;9.258;2022-09-09T06:23:52;5.20;;;1.50;;
41755;SDS011;27435;48.480;9.258;2022-09-09T06:26:21;2.42;;;0.80;;
41755;SDS011;27435;48.480;9.258;2022-09-09T06:28:54;3.25;;;1.10;;
41755;SDS011;27435;48.480;9.258;2022-09-09T06:31:21;5.63;;;1.67;;
41755;SDS011;27435;48.480;9.258;2022-09-09T06:33:49;4.13;;;1.00;;
41755;SDS011;27435;48.480;9.258;2022-09-09T06:36:16;5.55;;;0.95;;
41755;SDS011;27435;48.480;9.258;2022-09-09T06:38:50;4.07;;;1.10;;
41755;SDS011;27435;48.480;9.258;2022-09-09T06:41:17;6.13;;;1.33;;
41755;SDS011;27435;48.480;9.258;2022-09-09T06:43:44;3.67;;;0.95;;
41755;SDS011;27435;48.480;9.258;2022-09-09T06:46:17;4.68;;;0.90;;
41755;SDS011;27435;48.480;9.258;2022-09-09T06:48:56;2.63;;;0.77;;
41755;SDS011;27435;48.480;9.258;2022-09-09T06:51:24;2.72;;;0.70;;
41755;SDS011;27435;48.480;9.258;2022-09-09T06:53:59;2.17;;;0.80;;
41755;SDS011;27435;48.480;9.258;2022-09-09T06:58:54;2.13;;;0.65;;
41755;SDS011;27435;48.480;9.258;2022-09-09T07:01:25;3.35;;;0.85;;
41755;SDS011;27435;48.480;9.258;2022-09-09T07:03:54;4.28;;;0.73;;
41755;SDS011;27435;48.480;9.258;2022-09-09T07:06:22;3.70;;;0.70;;
41755;SDS011;27435;48.480;9.258;2022-09-09T07:08:53;5.53;;;0.70;;
41755;SDS011;27435;48.480;9.258;2022-09-09T07:11:30;2.72;;;0.85;;
41755;SDS011;27435;48.480;9.258;2022-09-09T07:13:57;3.65;;;0.70;;
41755;SDS011;27435;48.480;9.258;2022-09-09T07:16:24;3.75;;;0.75;;
41755;SDS011;27435;48.480;9.258;2022-09-09T07:18:52;4.13;;;0.95;;
41755;SDS011;27435;48.480;9.258;2022-09-09T07:21:22;5.35;;;0.60;;
41755;SDS011;27435;48.480;9.258;2022-09-09T07:23:49;3.20;;;1.40;;
41755;SDS011;27435;48.480;9.258;2022-09-09T07:26:16;3.42;;;0.80;;
41755;SDS011;27435;48.480;9.258;2022-09-09T07:28:47;5.28;;;0.82;;
41755;SDS011;27435;48.480;9.258;2022-09-09T07:31:17;3.97;;;0.95;;
41755;SDS011;27435;48.480;9.258;2022-09-09T07:33:48;3.80;;;0.80;;
41755;SDS011;27435;48.480;9.258;2022-09-09T07:36:22;3.97;;;1.13;;
41755;SDS011;27435;48.480;9.258;2022-09-09T07:38:51;7.40;;;1.08;;
41755;SDS011;27435;48.480;9.258;2022-09-09T07:41:20;2.38;;;0.50;;
41755;SDS011;27435;48.480;9.258;2022-09-09T07:43:47;3.70;;;0.70;;
41755;SDS011;27435;48.480;9.258;2022-09-09T07:46:14;3.45;;;0.65;;
41755;SDS011;27435;48.480;9.258;2022-09-09T07:48:45;6.90;;;1.80;;
41755;SDS011;27435;48.480;9.258;2022-09-09T07:51:16;2.17;;;1.00;;
41755;SDS011;27435;48.480;9.258;2022-09-09T07:53:47;4.03;;;0.43;;
41755;SDS011;27435;48.480;9.258;2022-09-09T07:56:14;3.28;;;0.73;;
41755;SDS011;27435;48.480;9.258;2022-09-09T07:58:41;3.25;;;0.93;;
41755;SDS011;27435;48.480;9.258;2022-09-09T08:01:11;5.22;;;0.80;;
41755;SDS011;27435;48.480;9.258;2022-09-09T08:03:43;3.38;;;0.68;;
41755;SDS011;27435;48.480;9.258;2022-09-09T08:06:09;4.85;;;0.80;;
41755;SDS011;27435;48.480;9.258;2022-09-09T08:08:36;7.25;;;1.63;;
41755;SDS011;27435;48.480;9.258;2022-09-09T08:11:22;3.22;;;0.70;;
41755;SDS011;27435;48.480;9.258;2022-09-09T08:13:50;2.00;;;0.45;;
41755;SDS011;27435;48.480;9.258;2022-09-09T08:16:18;5.55;;;0.80;;
41755;SDS011;27435;48.480;9.258;2022-09-09T08:18:48;5.13;;;1.15;;
41755;SDS011;27435;48.480;9.258;2022-09-09T08:21:16;4.10;;;0.90;;
41755;SDS011;27435;48.480;9.258;2022-09-09T08:23:45;3.63;;;0.70;;
41755;SDS011;27435;48.480;9.258;2022-09-09T08:26:16;3.88;;;1.42;;
41755;SDS011;27435;48.480;9.258;2022-09-09T08:28:47;3.42;;;0.70;;
41755;SDS011;27435;48.480;9.258;2022-09-09T08:31:18;4.07;;;0.70;;
41755;SDS011;27435;48.480;9.258;2022-09-09T08:33:47;6.15;;;0.60;;
41755;SDS011;27435;48.480;9.258;2022-09-09T08:36:14;7.32;;;0.88;;
41755;SDS011;27435;48.480;9.258;2022-09-09T08:38:47;3.85;;;0.93;;
41755;SDS011;27435;48.480;9.258;2022-09-09T08:44:02;3.00;;;0.90;;
41755;SDS011;27435;48.480;9.258;2022-09-09T08:51:58;3.13;;;0.68;;
41755;SDS011;27435;48.480;9.258;2022-09-09T08:54:25;5.95;;;0.80;;
41755;SDS011;27435;48.480;9.258;2022-09-09T08:56:57;3.13;;;0.60;;
41755;SDS011;27435;48.480;9.258;2022-09-09T08:59:22;10.68;;;1.55;;
41755;SDS011;27435;48.480;9.258;2022-09-09T09:12:38;6.75;;;0.90;;
41755;SDS011;27435;48.480;9.258;2022-09-09T09:15:15;3.28;;;0.68;;
41755;SDS011;27435;48.480;9.258;2022-09-09T09:17:44;5.22;;;0.70;;
41755;SDS011;27435;48.480;9.258;2022-09-09T09:20:13;4.13;;;0.60;;
41755;SDS011;27435;48.480;9.258;2022-09-09T09:22:47;2.50;;;0.55;;
41755;SDS011;27435;48.480;9.258;2022-09-09T09:25:17;7.67;;;0.73;;
41755;SDS011;27435;48.480;9.258;2022-09-09T09:30:18;5.50;;;0.60;;
41755;SDS011;27435;48.480;9.258;2022-09-09T09:32:51;3.60;;;0.60;;
41755;SDS011;27435;48.480;9.258;2022-09-09T09:35:21;4.65;;;0.82;;
41755;SDS011;27435;48.480;9.258;2022-09-09T09:37:47;5.20;;;0.70;;
41755;SDS011;27435;48.480;9.258;2022-09-09T09:43:16;4.30;;;0.70;;
41755;SDS011;27435;48.480;9.258;2022-09-09T09:45:45;3.97;;;0.60;;
41755;SDS011;27435;48.480;9.258;2022-09-09T09:48:11;3.80;;;0.50;;
41755;SDS011;27435;48.480;9.258;2022-09-09T09:50:48;6.18;;;1.13;;
41755;SDS011;27435;48.480;9.258;2022-09-09T09:53:29;5.32;;;0.50;;
41755;SDS011;27435;48.480;9.258;2022-09-09T09:58:25;2.65;;;0.60;;
41755;SDS011;27435;48.480;9.258;2022-09-09T10:01:01;6.93;;;1.35;;
41755;SDS011;27435;48.480;9.258;2022-09-09T10:03:28;4.22;;;0.70;;
41755;SDS011;27435;48.480;9.258;2022-09-09T10:05:56;2.85;;;0.63;;
41755;SDS011;27435;48.480;9.258;2022-09-09T10:08:26;3.72;;;0.88;;
41755;SDS011;27435;48.480;9.258;2022-09-09T10:16:17;3.70;;;0.47;;
41755;SDS011;27435;48.480;9.258;2022-09-09T10:27:05;2.95;;;0.50;;
41755;SDS011;27435;48.480;9.258;2022-09-09T10:35:33;2.03;;;0.50;;
41755;SDS011;27435;48.480;9.258;2022-09-09T10:46:16;3.17;;;0.70;;
41755;SDS011;27435;48.480;9.258;2022-09-09T10:49:16;1.92;;;0.30;;
41755;SDS011;27435;48.480;9.258;2022-09-09T10:57:31;2.97;;;0.60;;
41755;SDS011;27435;48.480;9.258;2022-09-09T11:00:06;5.72;;;0.60;;
41755;SDS011;27435;48.480;9.258;2022-09-09T11:02:39;1.98;;;0.30;;
41755;SDS011;27435;48.480;9.258;2022-09-09T11:05:13;2.45;;;0.50;;
41755;SDS011;27435;48.480;9.258;2022-09-09T11:07:52;3.13;;;0.50;;
41755;SDS011;27435;48.480;9.258;2022-09-09T11:13:19;4.13;;;0.82;;
41755;SDS011;27435;48.480;9.258;2022-09-09T11:15:52;1.55;;;0.40;;
41755;SDS011;27435;48.480;9.258;2022-09-09T11:18:25;5.40;;;0.85;;
41755;SDS011;27435;48.480;9.258;2022-09-09T11:20:56;3.25;;;0.50;;
41755;SDS011;27435;48.480;9.258;2022-09-09T11:23:42;2.30;;;0.50;;
41755;SDS011;27435;48.480;9.258;2022-09-09T11:26:16;2.38;;;0.45;;
41755;SDS011;27435;48.480;9.258;2022-09-09T11:32:00;2.70;;;0.52;;
41755;SDS011;27435;48.480;9.258;2022-09-09T11:34:51;3.03;;;0.45;;
41755;SDS011;27435;48.480;9.258;2022-09-09T11:42:33;2.92;;;0.45;;
41755;SDS011;27435;48.480;9.258;2022-09-09T11:45:08;5.90;;;0.80;;
41755;SDS011;27435;48.480;9.258;2022-09-09T11:47:36;3.40;;;0.63;;
41755;SDS011;27435;48.480;9.258;2022-09-09T11:52:43;2.92;;;0.40;;
41755;SDS011;27435;48.480;9.258;2022-09-09T11:55:20;1.80;;;0.55;;
41755;SDS011;27435;48.480;9.258;2022-09-09T11:58:04;1.35;;;0.40;;
41755;SDS011;27435;48.480;9.258;2022-09-09T12:00:41;1.35;;;0.40;;
41755;SDS011;27435;48.480;9.258;2022-09-09T12:05:55;1.83;;;0.47;;
41755;SDS011;27435;48.480;9.258;2022-09-09T12:08:25;1.52;;;0.40;;
41755;SDS011;27435;48.480;9.258;2022-09-09T12:10:54;3.67;;;0.60;;
41755;SDS011;27435;48.480;9.258;2022-09-09T12:13:22;0.85;;;0.40;;
41755;SDS011;27435;48.480;9.258;2022-09-09T12:15:54;1.67;;;0.40;;
41755;SDS011;27435;48.480;9.258;2022-09-09T12:18:38;2.92;;;0.80;;
41755;SDS011;27435;48.480;9.258;2022-09-09T12:23:53;2.80;;;0.40;;
41755;SDS011;27435;48.480;9.258;2022-09-09T12:26:34;2.95;;;0.40;;
41755;SDS011;27435;48.480;9.258;2022-09-09T12:31:59;1.55;;;0.40;;
41755;SDS011;27435;48.480;9.258;2022-09-09T12:37:36;2.17;;;0.65;;
41755;SDS011;27435;48.480;9.258;2022-09-09T12:40:30;2.17;;;0.40;;
41755;SDS011;27435;48.480;9.258;2022-09-09T12:43:00;4.25;;;0.63;;
41755;SDS011;27435;48.480;9.258;2022-09-09T12:45:28;3.83;;;0.60;;
41755;SDS011;27435;48.480;9.258;2022-09-09T12:50:27;3.80;;;0.52;;
41755;SDS011;27435;48.480;9.258;2022-09-09T12:52:56;4.55;;;0.40;;
41755;SDS011;27435;48.480;9.258;2022-09-09T12:55:29;2.97;;;0.63;;
41755;SDS011;27435;48.480;9.258;2022-09-09T12:57:58;4.13;;;1.05;;
41755;SDS011;27435;48.480;9.258;2022-09-09T13:00:25;6.97;;;0.88;;
41755;SDS011;27435;48.480;9.258;2022-09-09T13:02:55;3.38;;;0.35;;
41755;SDS011;27435;48.480;9.258;2022-09-09T13:05:27;3.35;;;0.50;;
41755;SDS011;27435;48.480;9.258;2022-09-09T13:08:03;4.25;;;0.77;;
41755;SDS011;27435;48.480;9.258;2022-09-09T13:10:32;3.90;;;0.65;;
41755;SDS011;27435;48.480;9.258;2022-09-09T13:13:03;3.92;;;0.80;;
41755;SDS011;27435;48.480;9.258;2022-09-09T13:15:37;2.00;;;0.50;;
41755;SDS011;27435;48.480;9.258;2022-09-09T13:18:06;4.95;;;0.82;;
41755;SDS011;27435;48.480;9.258;2022-09-09T13:20:37;3.10;;;0.68;;
41755;SDS011;27435;48.480;9.258;2022-09-09T13:23:03;1.27;;;0.30;;
41755;SDS011;27435;48.480;9.258;2022-09-09T13:25:28;3.08;;;0.50;;
41755;SDS011;27435;48.480;9.258;2022-09-09T13:33:39;1.48;;;0.55;;
41755;SDS011;27435;48.480;9.258;2022-09-09T13:35:53;4.40;;;0.30;;
41755;SDS011;27435;48.480;9.258;2022-09-09T13:38:21;1.20;;;0.32;;
41755;SDS011;27435;48.480;9.258;2022-09-09T13:40:54;4.30;;;0.50;;
41755;SDS011;27435;48.480;9.258;2022-09-09T13:43:43;5.78;;;1.10;;
41755;SDS011;27435;48.480;9.258;2022-09-09T13:48:59;3.83;;;1.05;;
41755;SDS011;27435;48.480;9.258;2022-09-09T13:51:49;1.90;;;0.65;;
41755;SDS011;27435;48.480;9.258;2022-09-09T13:54:18;3.63;;;0.57;;
41755;SDS011;27435;48.480;9.258;2022-09-09T13:56:45;1.48;;;0.40;;
41755;SDS011;27435;48.480;9.258;2022-09-09T13:59:12;20.77;;;2.10;;
41755;SDS011;27435;48.480;9.258;2022-09-09T14:01:41;2.75;;;0.50;;
41755;SDS011;27435;48.480;9.258;2022-09-09T14:04:08;1.25;;;0.43;;
41755;SDS011;27435;48.480;9.258;2022-09-09T14:06:35;1.17;;;0.30;;
41755;SDS011;27435;48.480;9.258;2022-09-09T14:09:03;2.85;;;0.40;;
41755;SDS011;27435;48.480;9.258;2022-09-09T14:11:30;2.95;;;0.70;;
41755;SDS011;27435;48.480;9.258;2022-09-09T14:13:55;3.78;;;0.52;;
41755;SDS011;27435;48.480;9.258;2022-09-09T14:16:21;3.47;;;0.32;;
41755;SDS011;27435;48.480;9.258;2022-09-09T14:18:47;1.08;;;0.40;;
41755;SDS011;27435;48.480;9.258;2022-09-09T14:21:12;2.65;;;0.45;;
41755;SDS011;27435;48.480;9.258;2022-09-09T14:23:39;1.45;;;0.30;;
41755;SDS011;27435;48.480;9.258;2022-09-09T14:26:05;2.05;;;0.63;;
41755;SDS011;27435;48.480;9.258;2022-09-09T14:28:31;3.80;;;0.65;;
41755;SDS011;27435;48.480;9.258;2022-09-09T14:31:01;2.65;;;0.30;;
41755;SDS011;27435;48.480;9.258;2022-09-09T14:33:28;3.65;;;0.73;;
41755;SDS011;27435;48.480;9.258;2022-09-09T14:35:58;2.65;;;0.30;;
41755;SDS011;27435;48.480;9.258;2022-09-09T14:38:25;4.93;;;0.57;;
41755;SDS011;27435;48.480;9.258;2022-09-09T14:40:54;2.05;;;0.43;;
41755;SDS011;27435;48.480;9.258;2022-09-09T14:43:21;2.00;;;0.47;;
41755;SDS011;27435;48.480;9.258;2022-09-09T14:45:47;1.33;;;0.40;;
41755;SDS011;27435;48.480;9.258;2022-09-09T14:48:18;2.60;;;0.30;;
41755;SDS011;27435;48.480;9.258;2022-09-09T14:50:44;4.80;;;0.50;;
41755;SDS011;27435;48.480;9.258;2022-09-09T14:53:10;2.15;;;0.50;;
41755;SDS011;27435;48.480;9.258;2022-09-09T14:55:36;3.17;;;0.55;;
41755;SDS011;27435;48.480;9.258;2022-09-09T14:58:02;1.52;;;0.40;;
41755;SDS011;27435;48.480;9.258;2022-09-09T15:00:28;1.85;;;0.47;;
41755;SDS011;27435;48.480;9.258;2022-09-09T15:02:54;2.42;;;0.30;;
41755;SDS011;27435;48.480;9.258;2022-09-09T15:05:20;2.33;;;0.30;;
41755;SDS011;27435;48.480;9.258;2022-09-09T15:07:46;3.03;;;0.70;;
41755;SDS011;27435;48.480;9.258;2022-09-09T15:10:13;2.00;;;0.30;;
41755;SDS011;27435;48.480;9.258;2022-09-09T15:12:39;2.45;;;0.22;;
41755;SDS011;27435;48.480;9.258;2022-09-09T15:15:07;2.38;;;0.50;;
41755;SDS011;27435;48.480;9.258;2022-09-09T15:17:33;1.67;;;0.40;;
41755;SDS011;27435;48.480;9.258;2022-09-09T15:19:59;0.80;;;0.20;;
41755;SDS011;27435;48.480;9.258;2022-09-09T15:22:25;3.33;;;0.52;;
41755;SDS011;27435;48.480;9.258;2022-09-09T15:24:50;2.63;;;0.85;;
41755;SDS011;27435;48.480;9.258;2022-09-09T15:27:16;4.95;;;0.45;;
41755;SDS011;27435;48.480;9.258;2022-09-09T15:29:42;1.75;;;0.32;;
41755;SDS011;27435;48.480;9.258;2022-09-09T15:32:09;2.92;;;0.47;;
41755;SDS011;27435;48.480;9.258;2022-09-09T15:34:35;1.33;;;0.30;;
41755;SDS011;27435;48.480;9.258;2022-09-09T15:37:00;4.47;;;0.45;;
41755;SDS011;27435;48.480;9.258;2022-09-09T15:39:26;3.40;;;0.55;;
41755;SDS011;27435;48.480;9.258;2022-09-09T15:41:51;1.67;;;0.47;;
41755;SDS011;27435;48.480;9.258;2022-09-09T15:44:17;6.35;;;0.60;;
41755;SDS011;27435;48.480;9.258;2022-09-09T15:46:44;2.67;;;0.40;;
41755;SDS011;27435;48.480;9.258;2022-09-09T15:49:14;0.88;;;0.20;;
41755;SDS011;27435;48.480;9.258;2022-09-09T15:51:50;1.55;;;0.30;;
41755;SDS011;27435;48.480;9.258;2022-09-09T15:54:21;0.95;;;0.25;;
41755;SDS011;27435;48.480;9.258;2022-09-09T15:56:54;1.05;;;0.10;;
41755;SDS011;27435;48.480;9.258;2022-09-09T15:59:22;1.45;;;0.13;;
41755;SDS011;27435;48.480;9.258;2022-09-09T16:01:55;0.52;;;0.10;;
41755;SDS011;27435;48.480;9.258;2022-09-09T16:04:22;0.22;;;0.10;;
41755;SDS011;27435;48.480;9.258;2022-09-09T16:06:59;0.82;;;0.20;;
41755;SDS011;27435;48.480;9.258;2022-09-09T16:09:29;2.08;;;0.10;;
41755;SDS011;27435;48.480;9.258;2022-09-09T16:11:59;1.20;;;0.20;;
41755;SDS011;27435;48.480;9.258;2022-09-09T16:14:26;0.88;;;0.20;;
41755;SDS011;27435;48.480;9.258;2022-09-09T16:16:52;0.93;;;0.20;;
41755;SDS011;27435;48.480;9.258;2022-09-09T16:19:19;1.42;;;0.17;;
41755;SDS011;27435;48.480;9.258;2022-09-09T16:22:42;1.65;;;0.20;;
41755;SDS011;27435;48.480;9.258;2022-09-09T16:25:08;0.80;;;0.20;;
41755;SDS011;27435;48.480;9.258;2022-09-09T16:27:35;0.98;;;0.20;;
41755;SDS011;27435;48.480;9.258;2022-09-09T16:30:00;2.80;;;0.30;;
41755;SDS011;27435;48.480;9.258;2022-09-09T16:32:26;0.43;;;0.20;;
41755;SDS011;27435;48.480;9.258;2022-09-09T16:34:51;2.25;;;0.10;;
41755;SDS011;27435;48.480;9.258;2022-09-09T16:37:17;1.13;;;0.20;;
41755;SDS011;27435;48.480;9.258;2022-09-09T16:39:42;4.50;;;0.45;;
41755;SDS011;27435;48.480;9.258;2022-09-09T16:42:08;1.60;;;0.10;;
41755;SDS011;27435;48.480;9.258;2022-09-09T16:44:34;2.13;;;0.20;;
41755;SDS011;27435;48.480;9.258;2022-09-09T16:47:00;1.27;;;0.28;;
41755;SDS011;27435;48.480;9.258;2022-09-09T16:49:25;2.15;;;0.40;;
41755;SDS011;27435;48.480;9.258;2022-09-09T16:51:52;2.50;;;0.32;;
41755;SDS011;27435;48.480;9.258;2022-09-09T16:54:18;0.75;;;0.15;;
41755;SDS011;27435;48.480;9.258;2022-09-09T16:56:44;2.20;;;0.40;;
41755;SDS011;27435;48.480;9.258;2022-09-09T16:59:13;1.50;;;0.22;;
41755;SDS011;27435;48.480;9.258;2022-09-09T17:01:47;1.80;;;0.30;;
41755;SDS011;27435;48.480;9.258;2022-09-09T17:04:15;1.75;;;0.43;;
41755;SDS011;27435;48.480;9.258;2022-09-09T17:06:45;1.85;;;0.30;;
41755;SDS011;27435;48.480;9.258;2022-09-09T17:09:14;0.57;;;0.20;;
41755;SDS011;27435;48.480;9.258;2022-09-09T17:11:40;1.35;;;0.30;;
41755;SDS011;27435;48.480;9.258;2022-09-09T17:14:06;1.63;;;0.40;;
41755;SDS011;27435;48.480;9.258;2022-09-09T17:16:34;1.63;;;0.38;;
41755;SDS011;27435;48.480;9.258;2022-09-09T17:19:01;2.25;;;0.40;;
41755;SDS011;27435;48.480;9.258;2022-09-09T17:24:50;3.40;;;0.77;;
41755;SDS011;27435;48.480;9.258;2022-09-09T17:27:15;2.88;;;0.52;;
41755;SDS011;27435;48.480;9.258;2022-09-09T17:29:41;3.53;;;0.50;;
41755;SDS011;27435;48.480;9.258;2022-09-09T17:32:07;0.95;;;0.30;;